Grassy Creek, NC

6:37 PM EDT on March 28, 2015 (GMT -0400)
Matney Cabin in Mouth of Wilson | | Change Station
CLOSE
Current Station
Personal Weather Station
Location: Mouth Of Wilson, VA
Elevation: 2841 ft
Nearby Weather Stations

Elev 2841 ft 36.60 °N, 81.36 °W | Updated 1 minute ago

Clear
Clear
32.0 °F
Feels Like 26 °F
N
6.0
Wind Variable Wind from WNW
Gusts 16.0 mph

Today
High -- | Low -- °F
--% Chance of Precip.
Yesterday
High -- | Low -- °F
Precip. -- in
7:17 AM 7:44 PM
Waxing Gibbous, 66% visible
Pressure 30.03 in
Visibility 10.0 miles
Clouds Clear
Windchill 26 °F
Dew Point 8 °F
Humidity 36%
Rainfall 0.00 in
Snow Depth Not available.
UV 1 out of 12
Pollen 7.00 out of 12
Air Quality Not available.
Flu Activity Not available.
METAR KGEV 282215Z AUTO 28013G17KT 10SM CLR 00/M17 A3003 RMK AO2 T00001169

More Conditions Fewer Conditions

Pressure 30.03 in
Visibility 10.0 miles
Clouds Clear
Windchill 26 °F
Dew Point 8 °F
Humidity 36%
Rainfall 0.00 in
Snow Depth Not available.
UV 1 out of 12
Pollen 7.00 out of 12
Air Quality Not available.
Flu Activity Not available.
METAR KGEV 282215Z AUTO 28013G17KT 10SM CLR 00/M17 A3003 RMK AO2 T00001169

More Conditions Fewer Conditions

10-Day Weather Forecast

Almanac

Astronomy

Mar. 28, 2015 Rise Set
Actual Time
Civil Twilight
Nautical Twilight
Astronomical Twilight
Moon
Length of Visible Light
Length of Day
Tomorrow will be .
, % of the Moon is Illuminated

Today's Extremes

State Highs State Lows

Community

WunderPhotos

Upload Photos

1,809,110 photos uploaded!

WunderBlogs® & News

Nearby

Air Quality

  Air Quality AQ Index Pollutant
Not available.

Snow Depth

Station Depth Elevation

Earthquake Activity

City Distance Mag. Time & Date
Minimum magnitude displayed is 2.5.

Coastal Water Temperatures

Place Temperature

Stations

Nearby Weather Stations

Station Location Temp. Windchill Dew Point Humidity Wind Precip. Elev Updated Type